Terminal Aerodrome Forecast
Issued by NWS

Home | Current Version | Previous Version | Text Only | Print | Product List | Glossary On
Versions: 1 2 3 4 5 6 7 8 9 10 11 12 13
000
FTUS45 KSLC 211728
TAFENV
TAF
KENV 211728Z 2118/2218 13006KT P6SM FEW070 BKN200
     FM220200 VRB04KT P6SM BKN070
     FM221600 12006KT P6SM SKC=

USA.gov is the U.S. government's official web portal to all federal, state and local government web resources and services.